Hlavní strana
METAR-TAF:

METAR-TAF

Letiště :

Záhřeb, Chorvatsko

Letiště Franjo Tuđmana

zeměpisná šířka: 45-44N, zeměpisná délka: 016-04E, výška: 106 m

Aktuální stav počasí

Zpráva byla vytvořena před 30 minutami, v 03:30 UTC
Severovýchodní vítr 3 kt
Teplota 0°C
Vlhkost vzduchu 86%
Tlak 1017 hPa
Viditelnost 10 km a více
Žádná oblačnost pod 1500 m, nevyskytují se cumulonimby.

METAR: LDZA 230330Z 04003KT CAVOK 00/M02 Q1017 NOSIG

Čas: 05:00 (04:00 UTC)

Předpověď počasí

Zpráva byla vytvořena před 4 hodinami a 35 minutami, v 23:25 UTC
Předpověď platná od 23 v 00 UTC do 24 v 00 UTC
vítr z různých směrů 2 kt
Viditelnost 10 km a více
Žádná oblačnost pod 1500 m, nevyskytují se cumulonimby.
Pravděpodobnost 30% :
Dočasný
od 23 v 02 UTC do 23 v 08 UTC
(slabý) mrznoucí, déšť
Dočasný
od 23 v 04 UTC do 23 v 10 UTC
Severoseverovýchodní vítr 6 kt

TAF: LDZA 222325Z 2300/2400 VRB02KT CAVOK TX06/2313Z TNM03/2305Z PROB30 TEMPO 2302/2308 -FZRA TEMPO 2304/2310 03006KT

Stav a předpovědi počasí z více než 4 000 letišť (zprávy METAR a TAF).

Červené a žluté tečky na mapě představují dostupné meteorologické stanice.

Když kurzor umístíte na tečku, zobrazí se název stanice.

Pak kliknutím zobrazíte stav a předpověď počasí.

Chcete-li změnit mapu, kliknutím na zelené tlačítko se znaménkem +mapu přiblížíte, kliknutím na zelené tlačítko se znaménkem – mapu oddálíte a kliknutím na zelené šipky přejdete na sousední mapy.


METAR-TAF: